Time;durP1;ratioP1;P1;durP2;ratioP2;P2;SDS_P1;SDS_P2;PMS_P1;PMS_P2;Temp;Humidity;BMP_temperature;BMP_pressure;BME280_temperature;BME280_humidity;BME280_pressure;Samples;Min_cycle;Max_cycle;Signal;HPM_P1;HPM_P2
2023/10/03 00:01:43;;;;;;;8.30;3.20;;;;;;;15.87;71.95;101307.78;5031150;28;20021;-87
2023/10/03 00:04:09;;;;;;;10.38;3.38;;;;;;;16.35;71.59;101403.78;5013281;28;20044;-82
2023/10/03 00:06:39;;;;;;;8.70;3.22;;;;;;;16.39;73.06;101400.41;5012862;28;20069;-77
2023/10/03 00:09:08;;;;;;;8.88;3.58;;;;;;;16.26;69.88;101385.28;5030602;28;20041;-78
2023/10/03 00:11:35;;;;;;;7.07;3.33;;;;;;;16.27;70.20;101395.72;5030780;28;20037;-78
2023/10/03 00:14:03;;;;;;;9.70;3.38;;;;;;;16.32;70.45;101412.41;5013158;28;20485;-77
2023/10/03 00:16:29;;;;;;;9.05;3.42;;;;;;;16.26;69.43;101399.19;5030638;28;20033;-78
2023/10/03 00:18:54;;;;;;;12.20;3.55;;;;;;;16.18;70.30;101400.69;5030831;28;20592;-79
2023/10/03 00:21:19;;;;;;;8.05;3.63;;;;;;;15.93;70.97;101399.97;5030782;28;20033;-77
2023/10/03 00:23:45;;;;;;;10.25;3.53;;;;;;;15.64;71.51;101410.34;5013015;28;20028;-81
2023/10/03 00:26:17;;;;;;;7.65;3.00;;;;;;;15.63;70.70;101408.56;5030492;28;20025;-79
2023/10/03 00:28:44;;;;;;;8.73;4.05;;;;;;;15.56;70.65;101393.59;5012804;28;20033;-81
2023/10/03 00:31:13;;;;;;;6.88;3.08;;;;;;;15.58;70.12;101399.75;5030930;28;20033;-82
2023/10/03 00:33:41;;;;;;;12.63;3.53;;;;;;;15.63;70.61;101423.31;5030592;28;20032;-76
2023/10/03 00:36:17;;;;;;;10.60;3.30;;;;;;;15.53;70.67;101402.19;5030475;28;20026;-78
2023/10/03 00:38:42;;;;;;;6.90;3.20;;;;;;;15.10;70.55;101321.91;5029725;28;20068;-78
2023/10/03 00:41:08;;;;;;;6.82;2.85;;;;;;;15.30;71.31;101423.97;5030342;28;20083;-77
2023/10/03 00:43:34;;;;;;;10.63;3.17;;;;;;;15.21;70.54;101421.97;5030716;28;20020;-76
2023/10/03 00:46:00;;;;;;;8.13;3.40;;;;;;;14.86;70.83;101421.66;5029812;28;20112;-76
2023/10/03 00:48:27;;;;;;;14.32;4.03;;;;;;;14.70;71.69;101410.75;5030085;28;20657;-78
2023/10/03 00:50:55;;;;;;;10.23;3.15;;;;;;;14.47;71.99;101396.00;5030200;28;20040;-76
2023/10/03 00:53:21;;;;;;;8.57;3.28;;;;;;;14.52;72.19;101407.44;5030146;28;20108;-75
2023/10/03 00:55:47;;;;;;;11.80;3.60;;;;;;;14.58;72.57;101420.66;5029938;28;20429;-79
2023/10/03 01:00:43;;;;;;;9.18;3.72;;;;;;;14.46;73.31;101423.69;5050150;28;20037;-76
2023/10/03 01:03:32;;;;;;;7.40;3.67;;;;;;;14.37;73.86;101413.84;5049776;28;20111;-78
2023/10/03 01:06:08;;;;;;;9.20;3.58;;;;;;;14.20;74.66;101418.41;5031760;28;20432;-75
2023/10/03 01:08:39;;;;;;;10.35;3.70;;;;;;;14.12;74.72;101406.88;5053404;28;20107;-76
2023/10/03 01:11:18;;;;;;;10.88;4.10;;;;;;;13.67;74.37;101332.50;5054128;28;20094;-77
2023/10/03 01:13:49;;;;;;;10.77;4.03;;;;;;;14.26;74.53;101414.28;5053987;28;20037;-77
2023/10/03 01:16:29;;;;;;;7.97;3.78;;;;;;;14.22;74.08;101385.59;5034770;28;20045;-76
2023/10/03 01:19:07;;;;;;;8.02;3.78;;;;;;;14.38;74.34;101412.13;5021521;28;20386;-77
2023/10/03 01:21:32;;;;;;;10.20;3.70;;;;;;;14.01;76.22;101395.19;5054335;28;20036;-76
2023/10/03 01:23:59;;;;;;;11.75;3.90;;;;;;;14.05;77.67;101410.94;5051787;28;20033;-76
2023/10/03 01:26:24;;;;;;;9.55;3.10;;;;;;;14.03;78.08;101415.19;5053371;28;20507;-76
2023/10/03 01:28:50;;;;;;;7.38;3.55;;;;;;;14.03;76.78;101410.00;5053545;28;20060;-82
2023/10/03 01:31:15;;;;;;;9.77;4.43;;;;;;;13.69;76.46;101340.34;5053564;28;20031;-80
2023/10/03 01:33:41;;;;;;;8.50;3.90;;;;;;;13.94;76.95;101407.03;5053465;28;20032;-81
2023/10/03 01:36:06;;;;;;;8.88;3.83;;;;;;;13.77;78.16;101410.69;5053541;28;20025;-77
2023/10/03 01:38:31;;;;;;;14.40;3.55;;;;;;;13.62;79.63;101413.56;5053228;28;20115;-78
2023/10/03 01:41:00;;;;;;;11.25;3.90;;;;;;;13.52;78.87;101414.91;5053665;28;20087;-78
2023/10/03 01:43:26;;;;;;;9.13;3.97;;;;;;;13.61;78.13;101410.13;5053461;28;20029;-77
2023/10/03 01:45:53;;;;;;;9.98;3.70;;;;;;;13.24;77.10;101333.38;5053418;28;20029;-77
2023/10/03 01:48:19;;;;;;;16.52;4.68;;;;;;;13.52;76.24;101391.56;5053173;28;20021;-76
2023/10/03 01:50:44;;;;;;;12.95;4.20;;;;;;;13.67;76.06;101407.75;5053446;28;20108;-75
2023/10/03 01:53:11;;;;;;;11.43;3.88;;;;;;;13.60;75.98;101418.72;5053472;28;20463;-76
2023/10/03 01:55:37;;;;;;;11.23;4.00;;;;;;;13.38;77.02;101422.16;5053053;28;20487;-78
2023/10/03 01:58:04;;;;;;;10.60;4.38;;;;;;;12.90;76.86;101361.41;5051869;28;20530;-80
2023/10/03 02:00:30;;;;;;;10.77;3.92;;;;;;;13.14;77.48;101425.47;5035390;28;20028;-80
2023/10/03 02:03:07;;;;;;;10.35;4.93;;;;;;;12.71;78.31;101340.72;5052982;28;20056;-81
2023/10/03 02:05:35;;;;;;;11.40;4.05;;;;;;;13.30;78.95;101423.53;5052856;28;20037;-79
2023/10/03 02:08:07;;;;;;;13.75;4.25;;;;;;;12.93;80.03;101392.66;5052855;28;20545;-78
2023/10/03 02:10:36;;;;;;;11.25;4.53;;;;;;;13.11;78.91;101422.75;5052620;28;20068;-82
2023/10/03 02:13:11;;;;;;;13.25;5.80;;;;;;;13.17;77.81;101420.44;5053000;28;20021;-84
2023/10/03 02:15:38;;;;;;;20.60;6.25;;;;;;;13.07;77.56;101413.06;5052914;28;20104;-80
2023/10/03 02:18:05;;;;;;;16.08;6.82;;;;;;;12.86;77.56;101351.75;5052327;28;20048;-78
2023/10/03 02:21:02;;;;;;;13.32;5.85;;;;;;;13.10;76.65;101426.16;5009921;28;20042;-78
2023/10/03 02:23:28;;;;;;;15.27;6.53;;;;;;;12.88;77.28;101407.09;4994186;28;20038;-77
2023/10/03 02:25:55;;;;;;;14.65;5.53;;;;;;;12.93;77.16;101422.84;4993993;28;20133;-80
2023/10/03 02:28:21;;;;;;;11.45;5.00;;;;;;;12.55;77.72;101378.94;5010539;28;20464;-79
2023/10/03 02:30:49;;;;;;;11.32;4.90;;;;;;;12.70;78.34;101407.22;5010529;28;20052;-79
2023/10/03 02:33:16;;;;;;;11.30;4.18;;;;;;;12.56;79.38;101424.75;5010355;28;20059;-73
2023/10/03 02:35:43;;;;;;;11.10;4.25;;;;;;;12.39;79.93;101423.97;5010388;28;20149;-74
2023/10/03 02:38:29;;;;;;;9.93;4.03;;;;;;;12.37;80.44;101425.59;5010189;28;20037;-74
2023/10/03 02:40:59;;;;;;;11.38;4.78;;;;;;;12.30;80.58;101423.59;5010146;28;20049;-73
2023/10/03 02:43:27;;;;;;;16.92;5.03;;;;;;;12.16;80.91;101424.66;5010043;28;20076;-74
2023/10/03 02:45:53;;;;;;;11.88;4.10;;;;;;;12.14;80.57;101430.63;5009760;28;20121;-74
2023/10/03 02:48:20;;;;;;;9.68;4.72;;;;;;;12.20;81.05;101429.13;5009941;28;20122;-75
2023/10/03 02:50:47;;;;;;;8.90;4.57;;;;;;;12.09;80.80;101418.31;5012198;28;20509;-73
2023/10/03 02:53:14;;;;;;;10.25;4.60;;;;;;;11.68;80.83;101356.03;5052292;28;20025;-73
2023/10/03 02:55:43;;;;;;;13.02;4.45;;;;;;;12.06;81.63;101437.19;5052266;28;20484;-73
2023/10/03 02:58:13;;;;;;;14.83;5.93;;;;;;;12.10;80.85;101426.13;5051850;28;20120;-74
2023/10/03 03:00:39;;;;;;;22.55;7.18;;;;;;;12.27;80.79;101431.19;5052291;28;20322;-72
2023/10/03 03:03:32;;;;;;;21.00;6.38;;;;;;;12.45;80.03;101439.81;5009775;28;20100;-73
2023/10/03 03:05:59;;;;;;;14.07;5.50;;;;;;;12.59;78.71;101432.63;5009264;28;20061;-73
2023/10/03 03:08:27;;;;;;;15.63;5.97;;;;;;;12.68;78.14;101431.28;5009629;28;20600;-77
2023/10/03 03:10:55;;;;;;;15.85;5.78;;;;;;;12.57;78.10;101434.28;5008113;28;20042;-75
2023/10/03 03:13:23;;;;;;;14.52;5.75;;;;;;;12.52;78.19;101429.72;4976162;28;20496;-76
2023/10/03 03:15:53;;;;;;;17.70;6.72;;;;;;;11.67;79.44;101350.78;5018273;28;20497;-77
2023/10/03 03:18:24;;;;;;;28.08;9.35;;;;;;;11.57;79.96;101364.97;5022501;28;20064;-76
2023/10/03 03:20:59;;;;;;;33.47;11.10;;;;;;;11.76;80.03;101413.28;5011738;28;20109;-77
2023/10/03 03:23:29;;;;;;;29.50;9.48;;;;;;;11.74;80.72;101431.34;5008986;28;20033;-76
2023/10/03 03:26:03;;;;;;;22.35;8.30;;;;;;;11.59;81.37;101434.06;5009343;28;20040;-76
2023/10/03 03:28:28;;;;;;;16.63;6.95;;;;;;;11.43;81.70;101416.91;5009056;28;20493;-76
2023/10/03 03:30:57;;;;;;;30.80;6.97;;;;;;;11.13;81.83;101368.06;5009204;28;20109;-76
2023/10/03 03:33:27;;;;;;;17.27;6.55;;;;;;;11.50;81.77;101431.03;5009308;28;20025;-75
2023/10/03 03:35:54;;;;;;;16.85;6.18;;;;;;;11.47;81.93;101416.25;5008996;28;20052;-76
2023/10/03 03:38:20;;;;;;;18.15;6.30;;;;;;;11.54;81.34;101432.06;5009033;28;20525;-81
2023/10/03 03:40:47;;;;;;;13.32;5.00;;;;;;;10.91;81.01;101335.13;5028678;28;20496;-78
2023/10/03 03:43:16;;;;;;;10.25;4.65;;;;;;;11.39;81.38;101416.69;5051292;28;20055;-77
2023/10/03 03:45:42;;;;;;;13.73;5.40;;;;;;;11.37;81.24;101405.41;5051026;28;20527;-75
2023/10/03 03:48:09;;;;;;;14.00;5.57;;;;;;;11.64;80.63;101416.19;5050516;28;20029;-79
2023/10/03 03:50:35;;;;;;;13.48;4.75;;;;;;;11.78;79.91;101409.09;5049406;28;20040;-78
2023/10/03 03:53:03;;;;;;;13.05;4.38;;;;;;;12.00;79.24;101423.94;5045593;28;20410;-77
2023/10/03 03:55:33;;;;;;;11.70;4.47;;;;;;;11.48;78.81;101353.38;5049131;28;20059;-78
2023/10/03 03:57:59;;;;;;;13.40;4.55;;;;;;;11.99;78.32;101432.53;5047514;28;20056;-77
2023/10/03 04:00:29;;;;;;;11.15;4.80;;;;;;;12.19;77.23;101433.44;5042358;28;20025;-75
2023/10/03 04:03:11;;;;;;;17.90;4.68;;;;;;;12.11;76.53;101406.31;5030817;28;20135;-75
2023/10/03 04:05:37;;;;;;;24.55;6.47;;;;;;;12.21;74.30;101410.19;5031071;28;20164;-75
2023/10/03 04:08:04;;;;;;;25.70;5.88;;;;;;;12.04;75.07;101424.97;4995627;28;20026;-75
2023/10/03 04:10:30;;;;;;;16.95;5.50;;;;;;;11.87;76.48;101435.38;5038760;28;20352;-80
2023/10/03 04:12:56;;;;;;;21.50;6.47;;;;;;;11.77;76.52;101405.59;5020493;28;20059;-80
2023/10/03 04:15:23;;;;;;;28.27;5.50;;;;;;;11.83;76.34;101415.34;5048925;28;20099;-82
2023/10/03 04:17:49;;;;;;;23.25;5.70;;;;;;;12.02;76.83;101426.59;5049235;28;20029;-78
2023/10/03 04:22:48;;;;;;;14.35;4.70;;;;;;;11.97;75.76;101434.16;5050488;28;20040;-77
2023/10/03 04:25:14;;;;;;;23.17;4.68;;;;;;;11.65;73.80;101438.63;5049066;28;20381;-79
2023/10/03 04:28:00;;;;;;;10.88;4.18;;;;;;;11.27;75.16;101437.66;5048337;28;20035;-78
2023/10/03 04:30:26;;;;;;;9.70;3.55;;;;;;;11.17;76.14;101449.25;5040384;28;20041;-76
2023/10/03 04:32:55;;;;;;;9.65;3.25;;;;;;;11.17;75.70;101447.53;5047639;28;20104;-77
2023/10/03 04:35:24;;;;;;;8.23;3.55;;;;;;;11.06;75.73;101432.31;5047840;28;20114;-77
2023/10/03 04:37:51;;;;;;;8.85;3.70;;;;;;;11.05;75.49;101440.88;5047799;28;20025;-76
2023/10/03 04:40:31;;;;;;;11.77;4.18;;;;;;;11.04;76.10;101446.84;5047844;28;20606;-77
2023/10/03 04:42:57;;;;;;;13.70;3.58;;;;;;;11.03;76.66;101435.63;5030905;28;20152;-77
2023/10/03 04:45:25;;;;;;;11.82;3.30;;;;;;;11.16;76.89;101443.19;5031069;28;20029;-76
2023/10/03 04:47:51;;;;;;;9.95;3.67;;;;;;;11.37;76.06;101450.22;5047786;28;20091;-76
2023/10/03 04:50:19;;;;;;;12.80;4.30;;;;;;;11.19;76.22;101402.78;5036781;28;20045;-79
2023/10/03 04:52:48;;;;;;;13.27;4.03;;;;;;;11.54;75.89;101445.91;5027478;28;20068;-77
2023/10/03 04:55:18;;;;;;;12.07;3.65;;;;;;;11.68;75.57;101446.56;5027895;28;20045;-77
2023/10/03 04:57:51;;;;;;;11.43;3.78;;;;;;;11.81;76.05;101453.19;5027739;28;20099;-77
2023/10/03 05:00:19;;;;;;;11.18;4.03;;;;;;;11.91;76.85;101446.75;5028367;28;20048;-77
2023/10/03 05:02:49;;;;;;;10.98;3.90;;;;;;;11.64;77.42;101392.91;5016052;28;20041;-77
2023/10/03 05:05:26;;;;;;;11.65;4.40;;;;;;;11.93;78.08;101458.09;5048902;28;20412;-77
2023/10/03 05:07:58;;;;;;;12.80;3.97;;;;;;;11.70;79.13;101438.88;5045696;28;20049;-76
2023/10/03 05:10:27;;;;;;;18.90;6.68;;;;;;;11.37;79.62;101377.84;5049039;28;20120;-77
2023/10/03 05:12:52;;;;;;;14.43;4.72;;;;;;;11.75;79.47;101442.56;5032292;28;20082;-75
2023/10/03 05:15:20;;;;;;;15.30;4.10;;;;;;;11.29;79.61;101379.16;5048737;28;20028;-76
2023/10/03 05:17:47;;;;;;;25.88;4.25;;;;;;;11.72;80.05;101463.13;5031686;28;20416;-76
2023/10/03 05:20:14;;;;;;;14.77;4.00;;;;;;;11.61;80.87;101470.34;5050137;28;20064;-77
2023/10/03 05:22:41;;;;;;;21.08;4.53;;;;;;;11.56;81.55;101464.94;5032372;28;20036;-78
2023/10/03 05:25:13;;;;;;;17.10;4.43;;;;;;;11.24;81.88;101398.72;5007820;28;20415;-75
2023/10/03 05:27:42;;;;;;;16.60;4.63;;;;;;;11.74;83.08;101479.56;4990960;28;20050;-77
2023/10/03 05:30:09;;;;;;;10.73;4.55;;;;;;;11.89;83.88;101482.91;4991455;28;20042;-76
2023/10/03 05:32:38;;;;;;;16.80;5.53;;;;;;;11.95;80.54;101480.63;4948915;29;20815;-77
2023/10/03 05:35:05;;;;;;;20.63;7.35;;;;;;;11.76;81.75;101491.81;4949392;29;20543;-78
2023/10/03 05:37:34;;;;;;;11.57;4.38;;;;;;;11.59;80.85;101409.88;4949352;29;20039;-76
2023/10/03 05:40:11;;;;;;;13.02;4.10;;;;;;;11.93;81.27;101471.03;4949532;29;20043;-76
2023/10/03 05:42:40;;;;;;;10.10;3.75;;;;;;;12.24;80.84;101500.97;4949555;29;20101;-77
2023/10/03 05:45:12;;;;;;;21.45;4.38;;;;;;;12.17;81.03;101488.56;4949116;29;20040;-76
2023/10/03 05:47:48;;;;;;;15.50;4.80;;;;;;;11.96;83.71;101500.56;4949416;29;20039;-76
2023/10/03 05:50:15;;;;;;;18.45;5.13;;;;;;;11.90;84.95;101499.31;4933088;29;20050;-76
2023/10/03 05:52:43;;;;;;;12.80;4.32;;;;;;;12.06;85.63;101511.34;4949427;29;20050;-77
2023/10/03 05:55:09;;;;;;;13.23;4.30;;;;;;;11.78;86.15;101487.56;4955564;28;20035;-78
2023/10/03 05:57:37;;;;;;;41.45;5.57;;;;;;;12.08;85.59;101512.31;4991465;28;20508;-82
2023/10/03 06:00:11;;;;;;;19.08;4.88;;;;;;;12.28;85.11;101505.47;4991709;28;20043;-79
2023/10/03 06:02:39;;;;;;;12.40;4.80;;;;;;;12.39;84.04;101506.84;4997693;28;20042;-76
2023/10/03 06:05:06;;;;;;;38.80;5.90;;;;;;;12.48;83.89;101513.28;5035419;28;20041;-79
2023/10/03 06:07:31;;;;;;;12.77;4.78;;;;;;;12.44;84.22;101510.53;5051603;28;20416;-81
2023/10/03 06:09:57;;;;;;;17.48;5.43;;;;;;;12.53;84.43;101502.31;5053172;28;20029;-78
2023/10/03 06:12:23;;;;;;;12.52;5.10;;;;;;;12.63;84.39;101508.78;5053602;28;20102;-76
2023/10/03 06:14:49;;;;;;;17.55;5.90;;;;;;;12.39;84.24;101442.09;5053132;28;20112;-77
2023/10/03 06:17:17;;;;;;;16.08;5.20;;;;;;;12.95;83.73;101496.38;5053132;28;20108;-80
2023/10/03 06:19:42;;;;;;;13.90;5.40;;;;;;;13.17;82.95;101512.88;5053202;28;20451;-76
2023/10/03 06:22:08;;;;;;;14.02;5.13;;;;;;;13.37;82.11;101504.28;5052803;28;20037;-82
2023/10/03 06:24:34;;;;;;;26.45;5.80;;;;;;;13.79;80.49;101533.63;5052620;28;20108;-77
2023/10/03 06:26:59;;;;;;;23.15;7.75;;;;;;;13.72;80.60;101517.81;5052479;28;20029;-79
2023/10/03 06:29:25;;;;;;;15.75;6.80;;;;;;;14.04;79.74;101519.94;5050704;28;20029;-77
2023/10/03 06:31:51;;;;;;;17.38;6.95;;;;;;;14.34;77.81;101519.34;5052567;28;20036;-76
2023/10/03 06:34:18;;;;;;;39.47;7.80;;;;;;;14.28;77.06;101464.56;5052828;28;20059;-77
2023/10/03 06:36:43;;;;;;;24.10;7.00;;;;;;;14.75;76.36;101507.06;5052403;28;20033;-77
2023/10/03 06:39:09;;;;;;;14.85;6.97;;;;;;;15.03;75.67;101521.06;5052395;28;20083;-77
2023/10/03 06:41:34;;;;;;;15.15;6.57;;;;;;;14.92;74.97;101479.06;5052547;28;20112;-77
2023/10/03 06:44:01;;;;;;;12.32;6.30;;;;;;;15.30;73.68;101510.75;5052512;28;20086;-83
2023/10/03 06:46:27;;;;;;;11.27;5.80;;;;;;;15.18;73.69;101481.69;5052478;28;20064;-77
2023/10/03 06:48:53;;;;;;;12.82;5.97;;;;;;;15.59;73.38;101536.88;5052650;28;20112;-77
2023/10/03 06:51:19;;;;;;;10.60;5.22;;;;;;;15.47;74.03;101529.50;5052314;28;20028;-80
2023/10/03 06:53:47;;;;;;;11.88;5.32;;;;;;;15.62;74.11;101531.75;5052263;28;20095;-77
2023/10/03 06:56:15;;;;;;;13.50;5.53;;;;;;;15.72;73.29;101532.06;5010074;28;20053;-77
2023/10/03 06:58:40;;;;;;;13.45;6.15;;;;;;;15.88;73.89;101534.34;5010110;28;20049;-77
2023/10/03 07:01:07;;;;;;;16.92;4.78;;;;;;;16.00;73.11;101521.72;5010329;28;20046;-77
2023/10/03 07:03:32;;;;;;;11.65;5.03;;;;;;;15.85;72.76;101521.25;5010126;28;20139;-77
2023/10/03 07:05:58;;;;;;;12.10;5.10;;;;;;;15.67;73.13;101511.06;5009422;28;20800;-77
2023/10/03 07:08:26;;;;;;;18.15;5.65;;;;;;;16.00;73.07;101533.88;4989407;28;20470;-76
2023/10/03 07:10:52;;;;;;;15.43;5.68;;;;;;;16.10;71.07;101517.69;4996925;28;20030;-78
2023/10/03 07:13:17;;;;;;;12.30;4.90;;;;;;;16.37;70.55;101518.50;4998197;28;20076;-79
2023/10/03 07:15:44;;;;;;;10.43;5.00;;;;;;;16.56;69.46;101502.56;4986900;28;20040;-79
2023/10/03 07:18:09;;;;;;;11.13;4.53;;;;;;;16.77;67.95;101510.13;4987466;28;20046;-80
2023/10/03 07:20:35;;;;;;;16.50;6.45;;;;;;;16.85;67.74;101489.47;4991701;28;20904;-78
2023/10/03 07:23:02;;;;;;;11.07;4.03;;;;;;;16.48;68.04;101431.94;4975951;28;20121;-77
2023/10/03 07:25:28;;;;;;;29.40;5.65;;;;;;;17.06;67.76;101501.31;4973866;28;20121;-80
2023/10/03 07:27:53;;;;;;;12.50;3.88;;;;;;;17.22;66.46;101513.06;5022300;28;20185;-78
2023/10/03 07:30:19;;;;;;;14.70;4.68;;;;;;;17.26;65.48;101494.06;5024922;28;20032;-78
2023/10/03 07:32:47;;;;;;;10.32;4.25;;;;;;;17.48;66.77;101513.72;5047795;28;20029;-78
2023/10/03 07:35:16;;;;;;;13.40;4.72;;;;;;;17.62;67.23;101512.34;5049192;28;20461;-78
2023/10/03 07:37:42;;;;;;;11.32;4.40;;;;;;;17.70;65.48;101511.66;5030844;28;20451;-78
2023/10/03 07:40:09;;;;;;;10.32;4.60;;;;;;;17.89;64.20;101516.47;5049921;28;20078;-79
2023/10/03 07:42:34;;;;;;;10.48;4.03;;;;;;;18.03;63.80;101510.72;5048832;28;20025;-79
2023/10/03 07:45:00;;;;;;;10.20;4.50;;;;;;;18.25;63.16;101507.72;5048680;28;20033;-78
2023/10/03 07:47:25;;;;;;;14.35;5.68;;;;;;;18.15;63.14;101505.78;5030519;28;20027;-78
2023/10/03 07:49:51;;;;;;;15.48;5.28;;;;;;;18.06;63.01;101500.34;5048567;28;20111;-79
2023/10/03 07:52:17;;;;;;;10.13;4.70;;;;;;;18.25;62.62;101496.41;5047953;28;20029;-79
2023/10/03 07:54:54;;;;;;;13.63;4.43;;;;;;;18.40;61.14;101486.25;5047806;28;20036;-77
2023/10/03 07:57:25;;;;;;;8.93;3.72;;;;;;;18.45;59.58;101495.97;5046723;28;20028;-79
2023/10/03 07:59:54;;;;;;;9.32;3.92;;;;;;;18.77;60.13;101509.69;5045806;28;20021;-80
2023/10/03 08:02:26;;;;;;;13.25;5.03;;;;;;;18.93;60.18;101495.22;5047801;28;20413;-79
2023/10/03 08:04:52;;;;;;;9.45;3.40;;;;;;;19.10;60.06;101498.13;5030084;28;20037;-76
2023/10/03 08:07:23;;;;;;;7.78;3.28;;;;;;;19.31;56.64;101505.47;5048257;28;20894;-81
2023/10/03 08:09:49;;;;;;;11.40;3.67;;;;;;;19.07;56.51;101450.97;5048069;28;20408;-77
2023/10/03 08:12:23;;;;;;;10.15;3.10;;;;;;;19.54;54.46;101502.41;5047756;28;20029;-73
2023/10/03 08:14:52;;;;;;;7.65;3.08;;;;;;;19.75;55.40;101506.19;5048176;28;20029;-70
2023/10/03 08:17:19;;;;;;;12.55;3.40;;;;;;;19.85;54.84;101481.91;5044393;28;20511;-74
2023/10/03 08:19:45;;;;;;;7.22;2.83;;;;;;;19.97;54.15;101492.59;5004394;28;20072;-70
2023/10/03 08:22:12;;;;;;;9.57;3.05;;;;;;;20.13;51.82;101500.69;5049662;28;20021;-71
2023/10/03 08:24:43;;;;;;;7.50;2.85;;;;;;;20.25;52.86;101494.72;5049231;28;20458;-73
2023/10/03 08:27:18;;;;;;;6.50;2.95;;;;;;;20.26;51.54;101473.78;5049129;28;20021;-72
2023/10/03 08:29:57;;;;;;;5.38;2.60;;;;;;;20.47;52.80;101496.78;5047004;28;20086;-71
2023/10/03 08:32:26;;;;;;;7.90;3.05;;;;;;;20.31;50.93;101440.63;5044887;28;20103;-73
2023/10/03 08:34:52;;;;;;;8.02;3.08;;;;;;;20.80;49.05;101492.81;5050167;28;20431;-71
2023/10/03 08:37:24;;;;;;;7.28;2.60;;;;;;;20.79;47.84;101477.91;5050079;28;20021;-70
2023/10/03 08:39:51;;;;;;;8.02;2.78;;;;;;;20.51;48.10;101419.88;5047968;28;20499;-72
2023/10/03 08:42:34;;;;;;;8.00;2.92;;;;;;;20.90;49.96;101483.28;5049648;28;20025;-70
2023/10/03 08:45:16;;;;;;;7.82;2.72;;;;;;;20.89;47.02;101483.28;5049034;28;20064;-73
2023/10/03 08:47:47;;;;;;;9.77;3.33;;;;;;;21.04;45.80;101479.94;5049879;28;20028;-71
2023/10/03 08:50:33;;;;;;;9.23;3.55;;;;;;;20.87;44.52;101446.50;5049916;28;20115;-72
2023/10/03 08:55:34;;;;;;;8.27;3.53;;;;;;;21.04;44.60;101432.69;5638294;22;20045;-73
2023/10/03 08:58:00;;;;;;;7.88;3.05;;;;;;;21.43;45.68;101478.50;5031409;28;20056;-78
2023/10/03 09:00:25;;;;;;;8.32;3.78;;;;;;;21.43;46.32;101478.50;5069869;28;20036;-67
2023/10/03 09:03:05;;;;;;;8.35;3.08;;;;;;;21.12;47.15;101430.97;5058476;28;20027;-67
2023/10/03 09:05:33;;;;;;;8.38;3.53;;;;;;;21.49;44.60;101474.19;5063673;28;20062;-67
2023/10/03 09:07:59;;;;;;;7.38;3.47;;;;;;;21.28;43.56;101468.75;5070256;28;20109;-67
2023/10/03 09:10:26;;;;;;;10.27;3.83;;;;;;;21.50;43.07;101469.81;5069565;28;20059;-67
2023/10/03 09:12:53;;;;;;;11.38;3.50;;;;;;;21.77;44.38;101463.91;5017872;28;20041;-67
2023/10/03 09:15:23;;;;;;;10.90;3.70;;;;;;;21.98;42.39;101467.53;5051614;28;20489;-67
2023/10/03 09:17:52;;;;;;;10.75;3.83;;;;;;;22.02;41.64;101463.16;5070000;28;20025;-66
2023/10/03 09:20:31;;;;;;;11.57;3.28;;;;;;;22.05;41.21;101471.09;5069169;28;20956;-66
2023/10/03 09:23:06;;;;;;;9.80;3.63;;;;;;;21.98;42.09;101450.03;5070109;28;20041;-66
2023/10/03 09:25:38;;;;;;;11.43;3.78;;;;;;;22.30;41.90;101469.44;5069667;28;20262;-68
2023/10/03 09:28:05;;;;;;;15.20;4.30;;;;;;;22.45;39.96;101459.03;5070511;28;20036;-70
2023/10/03 09:30:37;;;;;;;14.55;4.88;;;;;;;21.91;42.20;101407.91;5021216;28;20719;-69
2023/10/03 09:33:11;;;;;;;11.35;4.53;;;;;;;22.37;42.33;101455.50;5073617;28;20032;-67
2023/10/03 09:35:40;;;;;;;7.55;3.30;;;;;;;22.64;41.51;101458.19;5073664;28;20028;-67
2023/10/03 09:38:17;;;;;;;8.50;3.70;;;;;;;22.82;40.34;101454.72;5073557;28;20193;-66
2023/10/03 09:40:52;;;;;;;8.35;3.97;;;;;;;23.07;41.88;101458.28;5073368;28;20290;-66
2023/10/03 09:43:37;;;;;;;9.65;3.50;;;;;;;23.10;41.26;101445.09;5073574;28;20390;-67
2023/10/03 09:46:04;;;;;;;6.88;3.22;;;;;;;23.19;39.20;101444.25;5073459;28;20039;-66
2023/10/03 09:48:31;;;;;;;8.65;4.18;;;;;;;22.74;39.80;101374.00;5073126;28;20029;-66
2023/10/03 09:51:05;;;;;;;7.70;3.42;;;;;;;23.07;40.10;101426.69;5073341;28;20094;-66
2023/10/03 09:53:32;;;;;;;8.75;3.67;;;;;;;23.35;38.68;101437.25;5073063;28;20036;-66
2023/10/03 09:56:00;;;;;;;12.70;4.03;;;;;;;23.47;38.95;101433.72;5073070;28;20045;-66
2023/10/03 09:58:31;;;;;;;16.98;4.70;;;;;;;23.62;40.19;101441.59;5072698;28;20393;-66
2023/10/03 10:00:57;;;;;;;10.85;3.53;;;;;;;23.70;39.79;101437.19;5055825;28;20056;-67
2023/10/03 10:03:37;;;;;;;9.88;4.13;;;;;;;23.83;39.01;101427.50;5072902;28;20097;-66
2023/10/03 10:06:12;;;;;;;6.95;3.20;;;;;;;23.93;37.52;101425.75;5072876;28;20547;-67
2023/10/03 10:08:48;;;;;;;9.32;3.85;;;;;;;23.95;40.04;101417.81;5059971;28;20020;-67
2023/10/03 10:11:14;;;;;;;9.95;4.55;;;;;;;24.00;39.25;101416.03;5072596;28;20035;-67
2023/10/03 10:14:10;;;;;;;13.32;4.13;;;;;;;23.66;39.23;101369.53;5073072;28;20063;-67
2023/10/03 10:17:04;;;;;;;9.15;3.95;;;;;;;23.88;38.89;101407.25;5020179;28;20039;-68
2023/10/03 10:20:23;;;;;;;10.48;3.80;;;;;;;23.72;39.21;101400.28;5072775;28;20028;-68
2023/10/03 10:23:06;;;;;;;11.73;4.85;;;;;;;23.71;38.82;101399.41;4951271;29;20039;-66
2023/10/03 10:25:51;;;;;;;9.88;4.07;;;;;;;23.86;38.91;101405.50;4952291;29;20034;-66
2023/10/03 10:28:28;;;;;;;11.65;4.38;;;;;;;23.79;37.37;101356.31;4952367;29;20122;-66
2023/10/03 10:31:21;;;;;;;7.55;3.85;;;;;;;24.10;38.84;101395.78;4951570;29;20416;-66
2023/10/03 10:33:49;;;;;;;9.38;4.20;;;;;;;24.09;38.45;101380.81;4951476;29;20473;-67
2023/10/03 10:36:18;;;;;;;11.00;3.97;;;;;;;24.27;36.39;101390.44;4951930;29;20131;-67
2023/10/03 10:38:43;;;;;;;10.88;4.70;;;;;;;24.36;35.02;101387.72;4951314;28;20192;-67
2023/10/03 10:41:17;;;;;;;10.25;4.88;;;;;;;24.21;38.63;101346.47;4950406;28;20417;-67
2023/10/03 10:44:13;;;;;;;12.15;4.50;;;;;;;24.23;36.37;101379.00;4951045;29;20432;-67
2023/10/03 10:46:47;;;;;;;10.73;4.75;;;;;;;24.28;37.51;101366.66;4951767;29;20085;-67
2023/10/03 10:49:40;;;;;;;13.02;5.07;;;;;;;24.41;35.45;101366.59;4950884;29;20039;-68
2023/10/03 10:52:13;;;;;;;12.98;4.50;;;;;;;24.46;35.29;101363.06;4951465;29;20047;-67
2023/10/03 10:54:42;;;;;;;8.90;4.20;;;;;;;24.61;36.19;101353.25;4951493;29;20103;-68
2023/10/03 10:57:10;;;;;;;14.00;5.40;;;;;;;24.85;35.70;101354.88;4951059;29;20082;-67
2023/10/03 10:59:40;;;;;;;14.00;3.92;;;;;;;25.04;36.16;101360.88;5013075;28;20102;-67
2023/10/03 11:02:26;;;;;;;8.88;4.38;;;;;;;24.79;33.46;101349.66;5071090;28;20021;-67
2023/10/03 11:04:58;;;;;;;10.32;3.95;;;;;;;24.70;33.57;101348.81;5071825;28;20037;-67
2023/10/03 11:07:29;;;;;;;9.57;4.25;;;;;;;24.75;34.72;101354.06;5071638;28;20447;-68
2023/10/03 11:10:04;;;;;;;10.25;4.80;;;;;;;24.98;34.55;101345.94;5071706;28;20142;-68
2023/10/03 11:12:29;;;;;;;10.40;4.80;;;;;;;25.15;35.24;101345.78;5052799;28;20040;-67
2023/10/03 11:14:56;;;;;;;9.90;4.28;;;;;;;25.24;33.26;101342.19;5071061;28;20342;-67
2023/10/03 11:17:22;;;;;;;8.75;4.68;;;;;;;25.10;34.12;101333.53;5071811;28;20074;-67
2023/10/03 11:19:49;;;;;;;9.15;4.38;;;;;;;25.15;34.65;101332.56;5053632;28;20107;-67
2023/10/03 11:22:17;;;;;;;9.95;4.13;;;;;;;25.38;34.33;101327.97;5071240;28;20109;-67
2023/10/03 11:24:44;;;;;;;10.10;4.80;;;;;;;25.54;33.37;101318.97;5071743;28;20394;-68
2023/10/03 11:27:23;;;;;;;12.60;5.22;;;;;;;25.47;31.85;101290.84;5019534;28;20428;-67
2023/10/03 11:29:48;;;;;;;11.10;4.38;;;;;;;25.62;31.95;101295.97;5071430;28;20122;-68
2023/10/03 11:32:40;;;;;;;9.70;4.47;;;;;;;25.88;33.75;101326.47;5071669;28;20037;-68
2023/10/03 11:35:16;;;;;;;8.07;3.60;;;;;;;25.89;33.95;101316.78;4969974;28;20509;-67
2023/10/03 11:37:46;;;;;;;7.22;4.22;;;;;;;26.02;32.36;101317.50;4969807;28;20031;-68
2023/10/03 11:40:15;;;;;;;8.48;4.18;;;;;;;25.80;31.52;101284.25;4965827;28;20038;-67